This is the latest recevied weather packets stored in our database for station/object CT7BNL-13. If no packets are shown the sender has not sent any weather packets the latest 10 day(s).
| Time | Temp. | Humidity | Pressure | Rain* | Wind** | Luminosity | Snow |
|---|---|---|---|---|---|---|---|
| 1788462265 | 32.22° C | 30% | 1026.4 hPa | 0 mm | - | 3 W/m² | - |
| 1788461366 | 32.78° C | 30% | 1026.2 hPa | 0 mm | - | 12 W/m² | - |
| 1788460466 | 33.89° C | 29% | 1026.2 hPa | 0 mm | - | 25 W/m² | - |
| 1788459566 | 36.67° C | 27% | 1026 hPa | 0 mm | - | 44 W/m² | - |
| 1788458666 | 37.78° C | 23% | 1026 hPa | 0 mm | - | 69 W/m² | - |
| 1788457766 | 38.89° C | 23% | 1026.2 hPa | 0 mm | - | 101 W/m² | - |
| 1788456866 | 39.44° C | 22% | 1026.5 hPa | 0 mm | - | 138 W/m² | - |
| 1788455065 | 38.89° C | 21% | 1026.4 hPa | 0 mm | - | 227 W/m² | - |
| 1788454165 | 40° C | 21% | 1026.5 hPa | 0 mm | - | 281 W/m² | - |
| 1788453266 | 38.89° C | 20% | 1026.5 hPa | 0 mm | - | 332 W/m² | - |
| 1788452365 | 39.44° C | 20% | 1026.6 hPa | 0 mm | - | 382 W/m² | - |
| 1788451465 | 40° C | 20% | 1026.7 hPa | 0 mm | - | 435 W/m² | - |
| 1788450566 | 40° C | 20% | 1026.6 hPa | 0 mm | - | 495 W/m² | - |
| 1788449665 | 38.89° C | 21% | 1027 hPa | 0 mm | - | 540 W/m² | - |
| 1788448766 | 38.89° C | 21% | 1027 hPa | 0 mm | - | 579 W/m² | - |
| 1788447865 | 40° C | 20% | 1027 hPa | 0 mm | - | 608 W/m² | - |
| 1788446965 | 38.33° C | 22% | 1027.3 hPa | 0 mm | - | 640 W/m² | - |
| 1788446066 | 37.78° C | 21% | 1027.5 hPa | 0 mm | - | 671 W/m² | - |
| 1788445165 | 38.33° C | 23% | 1027.5 hPa | 0 mm | - | 703 W/m² | - |
| 1788444266 | 38.33° C | 23% | 1027.9 hPa | 0 mm | - | 728 W/m² | - |
| 1788443369 | 38.33° C | 21% | 1027.8 hPa | 0 mm | - | 749 W/m² | - |
| 1788442465 | 37.22° C | 24% | 1027.9 hPa | 0 mm | - | 762 W/m² | - |
| 1788441567 | 37.78° C | 22% | 1027.8 hPa | 0 mm | - | 778 W/m² | - |
| 1788440666 | 37.78° C | 22% | 1027.9 hPa | 0 mm | - | 789 W/m² | - |
| 1788439765 | 36.11° C | 23% | 1028 hPa | 0 mm | - | 799 W/m² | - |
* Rain latest hour (hover to see other rain measurements)
** Current wind speed in m/s (hover to see current wind gust speed)